sensor_id;sensor_type;location;lat;lon;timestamp;temperature;humidity
15156;DHT22;7678;50.058;8.306;2023-04-16T00:00:30;8.60;99.90
15156;DHT22;7678;50.058;8.306;2023-04-16T00:02:58;8.50;99.90
15156;DHT22;7678;50.058;8.306;2023-04-16T00:05:28;8.50;99.90
15156;DHT22;7678;50.058;8.306;2023-04-16T00:07:56;8.50;99.90
15156;DHT22;7678;50.058;8.306;2023-04-16T00:10:24;8.50;99.90
15156;DHT22;7678;50.058;8.306;2023-04-16T00:12:52;8.50;99.90
15156;DHT22;7678;50.058;8.306;2023-04-16T00:15:20;8.50;99.90
15156;DHT22;7678;50.058;8.306;2023-04-16T00:17:48;8.50;99.90
15156;DHT22;7678;50.058;8.306;2023-04-16T00:20:16;8.50;99.90
15156;DHT22;7678;50.058;8.306;2023-04-16T00:22:47;8.50;99.90
15156;DHT22;7678;50.058;8.306;2023-04-16T00:25:15;8.50;99.90
15156;DHT22;7678;50.058;8.306;2023-04-16T00:27:43;8.50;99.90
15156;DHT22;7678;50.058;8.306;2023-04-16T00:30:11;8.50;99.90
15156;DHT22;7678;50.058;8.306;2023-04-16T00:32:40;8.50;99.90
15156;DHT22;7678;50.058;8.306;2023-04-16T00:35:08;8.50;99.90
15156;DHT22;7678;50.058;8.306;2023-04-16T00:37:36;8.50;99.90
15156;DHT22;7678;50.058;8.306;2023-04-16T00:40:07;8.50;99.90
15156;DHT22;7678;50.058;8.306;2023-04-16T00:42:35;8.50;99.90
15156;DHT22;7678;50.058;8.306;2023-04-16T00:45:04;8.50;99.90
15156;DHT22;7678;50.058;8.306;2023-04-16T00:47:32;8.50;99.90
15156;DHT22;7678;50.058;8.306;2023-04-16T00:50:02;8.40;99.90
15156;DHT22;7678;50.058;8.306;2023-04-16T00:52:30;8.50;99.90
15156;DHT22;7678;50.058;8.306;2023-04-16T00:54:59;8.40;99.90
15156;DHT22;7678;50.058;8.306;2023-04-16T00:57:29;8.40;99.90
15156;DHT22;7678;50.058;8.306;2023-04-16T00:59:57;8.40;99.90
15156;DHT22;7678;50.058;8.306;2023-04-16T01:02:26;8.40;99.90
15156;DHT22;7678;50.058;8.306;2023-04-16T01:04:54;8.40;99.90
15156;DHT22;7678;50.058;8.306;2023-04-16T01:07:22;8.40;99.90
15156;DHT22;7678;50.058;8.306;2023-04-16T01:09:50;8.30;99.90
15156;DHT22;7678;50.058;8.306;2023-04-16T01:12:18;8.30;99.90
15156;DHT22;7678;50.058;8.306;2023-04-16T01:14:48;8.40;99.90
15156;DHT22;7678;50.058;8.306;2023-04-16T01:17:16;8.40;99.90
15156;DHT22;7678;50.058;8.306;2023-04-16T01:19:44;8.40;99.90
15156;DHT22;7678;50.058;8.306;2023-04-16T01:22:13;8.40;99.90
15156;DHT22;7678;50.058;8.306;2023-04-16T01:24:42;8.30;99.90
15156;DHT22;7678;50.058;8.306;2023-04-16T01:27:10;8.40;99.90
15156;DHT22;7678;50.058;8.306;2023-04-16T01:29:38;8.30;99.90
15156;DHT22;7678;50.058;8.306;2023-04-16T01:32:06;8.30;99.90
15156;DHT22;7678;50.058;8.306;2023-04-16T01:34:34;8.30;99.90
15156;DHT22;7678;50.058;8.306;2023-04-16T01:37:02;8.30;99.90
15156;DHT22;7678;50.058;8.306;2023-04-16T01:39:32;8.30;99.90
15156;DHT22;7678;50.058;8.306;2023-04-16T01:42:00;8.30;99.90
15156;DHT22;7678;50.058;8.306;2023-04-16T01:44:27;8.30;99.90
15156;DHT22;7678;50.058;8.306;2023-04-16T01:46:56;8.30;99.90
15156;DHT22;7678;50.058;8.306;2023-04-16T01:49:24;8.30;99.90
15156;DHT22;7678;50.058;8.306;2023-04-16T01:51:52;8.30;99.90
15156;DHT22;7678;50.058;8.306;2023-04-16T01:54:20;8.30;99.90
15156;DHT22;7678;50.058;8.306;2023-04-16T01:56:50;8.40;99.90
15156;DHT22;7678;50.058;8.306;2023-04-16T01:59:18;8.30;99.90
15156;DHT22;7678;50.058;8.306;2023-04-16T02:01:47;8.30;99.90
15156;DHT22;7678;50.058;8.306;2023-04-16T02:04:15;8.30;99.90
15156;DHT22;7678;50.058;8.306;2023-04-16T02:06:43;8.30;99.90
15156;DHT22;7678;50.058;8.306;2023-04-16T02:09:11;8.30;99.90
15156;DHT22;7678;50.058;8.306;2023-04-16T02:11:39;8.30;99.90
15156;DHT22;7678;50.058;8.306;2023-04-16T02:14:09;8.30;99.90
15156;DHT22;7678;50.058;8.306;2023-04-16T02:16:37;8.30;99.90
15156;DHT22;7678;50.058;8.306;2023-04-16T02:19:05;8.30;99.90
15156;DHT22;7678;50.058;8.306;2023-04-16T02:21:36;8.40;99.90
15156;DHT22;7678;50.058;8.306;2023-04-16T02:24:04;8.40;99.90
15156;DHT22;7678;50.058;8.306;2023-04-16T02:26:32;8.40;99.90
15156;DHT22;7678;50.058;8.306;2023-04-16T02:29:00;8.30;99.90
15156;DHT22;7678;50.058;8.306;2023-04-16T02:31:30;8.40;99.90
15156;DHT22;7678;50.058;8.306;2023-04-16T02:33:58;8.30;99.90
15156;DHT22;7678;50.058;8.306;2023-04-16T02:36:26;8.30;99.90
15156;DHT22;7678;50.058;8.306;2023-04-16T02:38:54;8.40;99.90
15156;DHT22;7678;50.058;8.306;2023-04-16T02:41:22;8.40;99.90
15156;DHT22;7678;50.058;8.306;2023-04-16T02:43:52;8.40;99.90
15156;DHT22;7678;50.058;8.306;2023-04-16T02:46:20;8.40;99.90
15156;DHT22;7678;50.058;8.306;2023-04-16T02:48:50;8.40;99.90
15156;DHT22;7678;50.058;8.306;2023-04-16T02:51:18;8.30;99.90
15156;DHT22;7678;50.058;8.306;2023-04-16T02:53:46;8.30;99.90
15156;DHT22;7678;50.058;8.306;2023-04-16T02:56:14;8.30;99.90
15156;DHT22;7678;50.058;8.306;2023-04-16T02:58:42;8.30;99.90
15156;DHT22;7678;50.058;8.306;2023-04-16T03:01:10;8.30;99.90
15156;DHT22;7678;50.058;8.306;2023-04-16T03:03:38;8.30;99.90
15156;DHT22;7678;50.058;8.306;2023-04-16T03:06:08;8.20;99.90
15156;DHT22;7678;50.058;8.306;2023-04-16T03:08:36;8.20;99.90
15156;DHT22;7678;50.058;8.306;2023-04-16T03:11:04;8.20;99.90
15156;DHT22;7678;50.058;8.306;2023-04-16T03:13:33;8.20;99.90
15156;DHT22;7678;50.058;8.306;2023-04-16T03:16:01;8.20;99.90
15156;DHT22;7678;50.058;8.306;2023-04-16T03:18:29;8.10;99.90
15156;DHT22;7678;50.058;8.306;2023-04-16T03:20:57;8.00;99.90
15156;DHT22;7678;50.058;8.306;2023-04-16T03:23:27;8.10;99.90
15156;DHT22;7678;50.058;8.306;2023-04-16T03:25:55;8.10;99.90
15156;DHT22;7678;50.058;8.306;2023-04-16T03:28:23;8.10;99.90
15156;DHT22;7678;50.058;8.306;2023-04-16T03:30:54;8.00;99.90
15156;DHT22;7678;50.058;8.306;2023-04-16T03:33:22;8.10;99.90
15156;DHT22;7678;50.058;8.306;2023-04-16T03:35:57;8.10;99.90
15156;DHT22;7678;50.058;8.306;2023-04-16T03:38:26;8.10;99.90
15156;DHT22;7678;50.058;8.306;2023-04-16T03:40:54;8.00;99.90
15156;DHT22;7678;50.058;8.306;2023-04-16T03:43:22;8.00;99.90
15156;DHT22;7678;50.058;8.306;2023-04-16T03:45:50;8.00;99.90
15156;DHT22;7678;50.058;8.306;2023-04-16T03:48:18;8.10;99.90
15156;DHT22;7678;50.058;8.306;2023-04-16T03:50:46;8.10;99.90
15156;DHT22;7678;50.058;8.306;2023-04-16T03:53:15;8.20;99.90
15156;DHT22;7678;50.058;8.306;2023-04-16T03:55:44;8.30;99.90
15156;DHT22;7678;50.058;8.306;2023-04-16T03:58:12;8.30;99.90
15156;DHT22;7678;50.058;8.306;2023-04-16T04:00:40;8.30;99.90
15156;DHT22;7678;50.058;8.306;2023-04-16T04:03:09;8.30;99.90
15156;DHT22;7678;50.058;8.306;2023-04-16T04:05:38;8.30;99.90
15156;DHT22;7678;50.058;8.306;2023-04-16T04:08:07;8.30;99.90
15156;DHT22;7678;50.058;8.306;2023-04-16T04:10:36;8.30;99.90
15156;DHT22;7678;50.058;8.306;2023-04-16T04:13:05;8.30;99.90
15156;DHT22;7678;50.058;8.306;2023-04-16T04:15:33;8.30;99.90
15156;DHT22;7678;50.058;8.306;2023-04-16T04:18:02;8.30;99.90
15156;DHT22;7678;50.058;8.306;2023-04-16T04:20:30;8.30;99.90
15156;DHT22;7678;50.058;8.306;2023-04-16T04:22:58;8.20;99.90
15156;DHT22;7678;50.058;8.306;2023-04-16T04:25:26;8.20;99.90
15156;DHT22;7678;50.058;8.306;2023-04-16T04:27:54;8.30;99.90
15156;DHT22;7678;50.058;8.306;2023-04-16T04:30:23;8.30;99.90
15156;DHT22;7678;50.058;8.306;2023-04-16T04:32:52;8.20;99.90
15156;DHT22;7678;50.058;8.306;2023-04-16T04:35:20;8.30;99.90
15156;DHT22;7678;50.058;8.306;2023-04-16T04:37:48;8.30;99.90
15156;DHT22;7678;50.058;8.306;2023-04-16T04:40:16;8.30;99.90
15156;DHT22;7678;50.058;8.306;2023-04-16T04:42:44;8.30;99.90
15156;DHT22;7678;50.058;8.306;2023-04-16T04:45:12;8.30;99.90
15156;DHT22;7678;50.058;8.306;2023-04-16T04:47:41;8.20;99.90
15156;DHT22;7678;50.058;8.306;2023-04-16T04:50:10;8.30;99.90
15156;DHT22;7678;50.058;8.306;2023-04-16T04:52:38;8.30;99.90
15156;DHT22;7678;50.058;8.306;2023-04-16T04:55:06;8.30;99.90
15156;DHT22;7678;50.058;8.306;2023-04-16T04:57:34;8.30;99.90
15156;DHT22;7678;50.058;8.306;2023-04-16T05:00:03;8.20;99.90
15156;DHT22;7678;50.058;8.306;2023-04-16T05:02:31;8.30;99.90
15156;DHT22;7678;50.058;8.306;2023-04-16T05:05:02;8.30;99.90
15156;DHT22;7678;50.058;8.306;2023-04-16T05:07:30;8.20;99.90
15156;DHT22;7678;50.058;8.306;2023-04-16T05:09:59;8.30;99.90
15156;DHT22;7678;50.058;8.306;2023-04-16T05:12:27;8.20;99.90
15156;DHT22;7678;50.058;8.306;2023-04-16T05:14:55;8.30;99.90
15156;DHT22;7678;50.058;8.306;2023-04-16T05:17:23;8.30;99.90
15156;DHT22;7678;50.058;8.306;2023-04-16T05:19:51;8.30;99.90
15156;DHT22;7678;50.058;8.306;2023-04-16T05:22:21;8.30;99.90
15156;DHT22;7678;50.058;8.306;2023-04-16T05:24:48;8.30;99.90
15156;DHT22;7678;50.058;8.306;2023-04-16T05:27:16;8.30;99.90
15156;DHT22;7678;50.058;8.306;2023-04-16T05:29:44;8.30;99.90
15156;DHT22;7678;50.058;8.306;2023-04-16T05:32:13;8.30;99.90
15156;DHT22;7678;50.058;8.306;2023-04-16T05:34:41;8.30;99.90
15156;DHT22;7678;50.058;8.306;2023-04-16T05:37:09;8.30;99.90
15156;DHT22;7678;50.058;8.306;2023-04-16T05:39:38;8.30;99.90
15156;DHT22;7678;50.058;8.306;2023-04-16T05:42:06;8.40;99.90
15156;DHT22;7678;50.058;8.306;2023-04-16T05:44:34;8.30;99.90
15156;DHT22;7678;50.058;8.306;2023-04-16T05:47:02;8.30;99.90
15156;DHT22;7678;50.058;8.306;2023-04-16T05:49:32;8.40;99.90
15156;DHT22;7678;50.058;8.306;2023-04-16T05:52:01;8.50;99.90
15156;DHT22;7678;50.058;8.306;2023-04-16T05:54:29;8.50;99.90
15156;DHT22;7678;50.058;8.306;2023-04-16T05:56:58;8.50;99.90
15156;DHT22;7678;50.058;8.306;2023-04-16T05:59:26;8.50;99.90
15156;DHT22;7678;50.058;8.306;2023-04-16T06:01:55;8.60;99.90
15156;DHT22;7678;50.058;8.306;2023-04-16T06:04:23;8.50;99.90
15156;DHT22;7678;50.058;8.306;2023-04-16T06:06:51;8.60;99.90
15156;DHT22;7678;50.058;8.306;2023-04-16T06:09:19;8.50;99.90
15156;DHT22;7678;50.058;8.306;2023-04-16T06:11:47;8.60;99.90
15156;DHT22;7678;50.058;8.306;2023-04-16T06:14:17;8.60;99.90
15156;DHT22;7678;50.058;8.306;2023-04-16T06:16:45;8.60;99.90
15156;DHT22;7678;50.058;8.306;2023-04-16T06:19:13;8.50;99.90
15156;DHT22;7678;50.058;8.306;2023-04-16T06:21:41;8.50;99.90
15156;DHT22;7678;50.058;8.306;2023-04-16T06:24:09;8.50;99.90
15156;DHT22;7678;50.058;8.306;2023-04-16T06:26:37;8.50;99.90
15156;DHT22;7678;50.058;8.306;2023-04-16T06:29:05;8.50;99.90
15156;DHT22;7678;50.058;8.306;2023-04-16T06:31:35;8.60;99.90
15156;DHT22;7678;50.058;8.306;2023-04-16T06:34:03;8.60;99.90
15156;DHT22;7678;50.058;8.306;2023-04-16T06:36:31;8.50;99.90
15156;DHT22;7678;50.058;8.306;2023-04-16T06:38:59;8.60;99.90
15156;DHT22;7678;50.058;8.306;2023-04-16T06:41:27;8.60;99.90
15156;DHT22;7678;50.058;8.306;2023-04-16T06:43:55;8.60;99.90
15156;DHT22;7678;50.058;8.306;2023-04-16T06:46:23;8.50;99.90
15156;DHT22;7678;50.058;8.306;2023-04-16T06:48:52;8.60;99.90
15156;DHT22;7678;50.058;8.306;2023-04-16T06:51:20;8.60;99.90
15156;DHT22;7678;50.058;8.306;2023-04-16T06:53:49;8.60;99.90
15156;DHT22;7678;50.058;8.306;2023-04-16T06:56:17;8.60;99.90
15156;DHT22;7678;50.058;8.306;2023-04-16T06:58:45;8.60;99.90
15156;DHT22;7678;50.058;8.306;2023-04-16T07:01:13;8.50;99.90
15156;DHT22;7678;50.058;8.306;2023-04-16T07:03:41;8.50;99.90
15156;DHT22;7678;50.058;8.306;2023-04-16T07:06:11;8.50;99.90
15156;DHT22;7678;50.058;8.306;2023-04-16T07:08:39;8.40;99.90
15156;DHT22;7678;50.058;8.306;2023-04-16T07:11:07;8.40;99.90
15156;DHT22;7678;50.058;8.306;2023-04-16T07:13:35;8.50;99.90
15156;DHT22;7678;50.058;8.306;2023-04-16T07:16:06;8.50;99.90
15156;DHT22;7678;50.058;8.306;2023-04-16T07:18:34;8.50;99.90
15156;DHT22;7678;50.058;8.306;2023-04-16T07:21:03;8.40;99.90
15156;DHT22;7678;50.058;8.306;2023-04-16T07:23:32;8.40;99.90
15156;DHT22;7678;50.058;8.306;2023-04-16T07:26:00;8.30;99.90
15156;DHT22;7678;50.058;8.306;2023-04-16T07:28:28;8.40;99.90
15156;DHT22;7678;50.058;8.306;2023-04-16T07:30:57;8.30;99.90
15156;DHT22;7678;50.058;8.306;2023-04-16T07:33:25;8.30;99.90
15156;DHT22;7678;50.058;8.306;2023-04-16T07:35:53;8.30;99.90
15156;DHT22;7678;50.058;8.306;2023-04-16T07:38:21;8.30;99.90
15156;DHT22;7678;50.058;8.306;2023-04-16T07:40:50;8.30;99.90
15156;DHT22;7678;50.058;8.306;2023-04-16T07:46:11;8.30;99.90
15156;DHT22;7678;50.058;8.306;2023-04-16T07:48:39;8.40;99.90
15156;DHT22;7678;50.058;8.306;2023-04-16T07:51:07;8.40;99.90
15156;DHT22;7678;50.058;8.306;2023-04-16T07:53:35;8.40;99.90
15156;DHT22;7678;50.058;8.306;2023-04-16T07:56:10;8.40;99.90
15156;DHT22;7678;50.058;8.306;2023-04-16T07:58:38;8.50;99.90
15156;DHT22;7678;50.058;8.306;2023-04-16T08:01:06;8.50;99.90
15156;DHT22;7678;50.058;8.306;2023-04-16T08:03:34;8.50;99.90
15156;DHT22;7678;50.058;8.306;2023-04-16T08:06:03;8.50;99.90
15156;DHT22;7678;50.058;8.306;2023-04-16T08:08:31;8.50;99.90
15156;DHT22;7678;50.058;8.306;2023-04-16T08:11:00;8.50;99.90
15156;DHT22;7678;50.058;8.306;2023-04-16T08:13:30;8.50;99.90
15156;DHT22;7678;50.058;8.306;2023-04-16T08:16:01;8.50;99.90
15156;DHT22;7678;50.058;8.306;2023-04-16T08:18:29;8.50;99.90
15156;DHT22;7678;50.058;8.306;2023-04-16T08:20:58;8.50;99.90
15156;DHT22;7678;50.058;8.306;2023-04-16T08:23:26;8.60;99.90
15156;DHT22;7678;50.058;8.306;2023-04-16T08:25:55;8.60;99.90
15156;DHT22;7678;50.058;8.306;2023-04-16T08:28:23;8.60;99.90
15156;DHT22;7678;50.058;8.306;2023-04-16T08:30:52;8.60;99.90
15156;DHT22;7678;50.058;8.306;2023-04-16T08:33:21;8.60;99.90
15156;DHT22;7678;50.058;8.306;2023-04-16T08:35:49;8.60;99.90
15156;DHT22;7678;50.058;8.306;2023-04-16T08:38:17;8.70;99.90
15156;DHT22;7678;50.058;8.306;2023-04-16T08:40:45;8.70;99.90
15156;DHT22;7678;50.058;8.306;2023-04-16T08:43:15;8.80;99.90
15156;DHT22;7678;50.058;8.306;2023-04-16T08:45:46;8.80;99.90
15156;DHT22;7678;50.058;8.306;2023-04-16T08:48:17;8.90;99.90
15156;DHT22;7678;50.058;8.306;2023-04-16T08:50:48;8.90;99.90
15156;DHT22;7678;50.058;8.306;2023-04-16T08:53:28;8.90;99.90
15156;DHT22;7678;50.058;8.306;2023-04-16T08:56:02;8.90;99.90
15156;DHT22;7678;50.058;8.306;2023-04-16T08:58:31;8.90;99.90
15156;DHT22;7678;50.058;8.306;2023-04-16T09:01:02;9.00;99.90
15156;DHT22;7678;50.058;8.306;2023-04-16T09:03:31;9.00;99.90
15156;DHT22;7678;50.058;8.306;2023-04-16T09:06:03;9.00;99.90
15156;DHT22;7678;50.058;8.306;2023-04-16T09:08:33;9.10;99.90
15156;DHT22;7678;50.058;8.306;2023-04-16T09:11:03;9.10;99.90
15156;DHT22;7678;50.058;8.306;2023-04-16T09:13:32;9.20;99.90
15156;DHT22;7678;50.058;8.306;2023-04-16T09:16:00;9.20;99.90
15156;DHT22;7678;50.058;8.306;2023-04-16T09:18:31;9.30;99.90
15156;DHT22;7678;50.058;8.306;2023-04-16T09:20:58;9.40;99.90
15156;DHT22;7678;50.058;8.306;2023-04-16T09:23:27;9.50;99.90
15156;DHT22;7678;50.058;8.306;2023-04-16T09:25:55;9.70;99.90
15156;DHT22;7678;50.058;8.306;2023-04-16T09:28:40;9.90;99.90
15156;DHT22;7678;50.058;8.306;2023-04-16T09:31:10;10.00;99.90
15156;DHT22;7678;50.058;8.306;2023-04-16T09:33:39;10.10;99.90
15156;DHT22;7678;50.058;8.306;2023-04-16T09:36:08;10.10;99.90
15156;DHT22;7678;50.058;8.306;2023-04-16T09:38:46;10.30;99.90
15156;DHT22;7678;50.058;8.306;2023-04-16T09:41:14;10.40;99.90
15156;DHT22;7678;50.058;8.306;2023-04-16T09:43:58;10.70;99.90
15156;DHT22;7678;50.058;8.306;2023-04-16T09:46:30;10.70;99.90
15156;DHT22;7678;50.058;8.306;2023-04-16T09:49:04;10.80;99.90
15156;DHT22;7678;50.058;8.306;2023-04-16T09:51:36;10.70;99.90
15156;DHT22;7678;50.058;8.306;2023-04-16T09:54:04;11.00;99.90
15156;DHT22;7678;50.058;8.306;2023-04-16T09:56:32;11.00;99.90
15156;DHT22;7678;50.058;8.306;2023-04-16T09:59:00;11.10;99.90
15156;DHT22;7678;50.058;8.306;2023-04-16T10:01:29;11.10;99.90
15156;DHT22;7678;50.058;8.306;2023-04-16T10:03:59;11.00;99.90
15156;DHT22;7678;50.058;8.306;2023-04-16T10:06:29;11.30;99.90
15156;DHT22;7678;50.058;8.306;2023-04-16T10:08:57;11.40;99.90
15156;DHT22;7678;50.058;8.306;2023-04-16T10:11:25;11.30;99.90
15156;DHT22;7678;50.058;8.306;2023-04-16T10:13:53;11.40;99.90
15156;DHT22;7678;50.058;8.306;2023-04-16T10:16:21;11.80;99.90
15156;DHT22;7678;50.058;8.306;2023-04-16T10:18:49;11.70;99.90
15156;DHT22;7678;50.058;8.306;2023-04-16T10:21:18;11.70;99.90
15156;DHT22;7678;50.058;8.306;2023-04-16T10:23:47;11.60;99.90
15156;DHT22;7678;50.058;8.306;2023-04-16T10:26:17;12.00;99.90
15156;DHT22;7678;50.058;8.306;2023-04-16T10:28:45;11.80;99.90
15156;DHT22;7678;50.058;8.306;2023-04-16T10:31:13;12.20;99.90
15156;DHT22;7678;50.058;8.306;2023-04-16T10:33:42;12.20;99.90
15156;DHT22;7678;50.058;8.306;2023-04-16T10:36:12;12.20;99.90
15156;DHT22;7678;50.058;8.306;2023-04-16T10:38:44;12.00;99.90
15156;DHT22;7678;50.058;8.306;2023-04-16T10:41:14;11.90;99.90
15156;DHT22;7678;50.058;8.306;2023-04-16T10:43:43;11.90;99.90
15156;DHT22;7678;50.058;8.306;2023-04-16T10:46:19;12.10;99.90
15156;DHT22;7678;50.058;8.306;2023-04-16T10:48:48;12.10;99.90
15156;DHT22;7678;50.058;8.306;2023-04-16T10:51:26;12.10;99.90
15156;DHT22;7678;50.058;8.306;2023-04-16T10:53:55;11.80;99.90
15156;DHT22;7678;50.058;8.306;2023-04-16T10:56:25;11.40;99.90
15156;DHT22;7678;50.058;8.306;2023-04-16T10:58:54;11.20;99.90
15156;DHT22;7678;50.058;8.306;2023-04-16T11:01:30;10.90;99.90
15156;DHT22;7678;50.058;8.306;2023-04-16T11:04:00;10.80;99.90
15156;DHT22;7678;50.058;8.306;2023-04-16T11:07:03;10.60;99.90
15156;DHT22;7678;50.058;8.306;2023-04-16T11:09:58;10.60;99.90
15156;DHT22;7678;50.058;8.306;2023-04-16T11:12:33;10.50;99.90
15156;DHT22;7678;50.058;8.306;2023-04-16T11:15:03;10.50;99.90
15156;DHT22;7678;50.058;8.306;2023-04-16T11:17:35;10.40;99.90
15156;DHT22;7678;50.058;8.306;2023-04-16T11:20:05;10.40;99.90
15156;DHT22;7678;50.058;8.306;2023-04-16T11:22:46;10.50;99.90
15156;DHT22;7678;50.058;8.306;2023-04-16T11:25:18;10.50;99.90
15156;DHT22;7678;50.058;8.306;2023-04-16T11:27:48;10.60;99.90
15156;DHT22;7678;50.058;8.306;2023-04-16T11:30:16;10.60;99.90
15156;DHT22;7678;50.058;8.306;2023-04-16T11:32:45;10.60;99.90
15156;DHT22;7678;50.058;8.306;2023-04-16T11:35:15;10.70;99.90
15156;DHT22;7678;50.058;8.306;2023-04-16T11:37:44;10.70;99.90
15156;DHT22;7678;50.058;8.306;2023-04-16T11:40:14;10.70;99.90
15156;DHT22;7678;50.058;8.306;2023-04-16T11:42:42;10.70;99.90
15156;DHT22;7678;50.058;8.306;2023-04-16T11:45:12;10.80;99.90
15156;DHT22;7678;50.058;8.306;2023-04-16T11:47:44;10.80;99.90
15156;DHT22;7678;50.058;8.306;2023-04-16T11:50:21;10.80;99.90
15156;DHT22;7678;50.058;8.306;2023-04-16T11:52:50;10.80;99.90
15156;DHT22;7678;50.058;8.306;2023-04-16T11:55:18;10.80;99.90
15156;DHT22;7678;50.058;8.306;2023-04-16T11:57:47;10.80;99.90
15156;DHT22;7678;50.058;8.306;2023-04-16T12:00:18;10.90;99.90
15156;DHT22;7678;50.058;8.306;2023-04-16T12:02:51;10.90;99.90
15156;DHT22;7678;50.058;8.306;2023-04-16T12:05:28;11.00;99.90
15156;DHT22;7678;50.058;8.306;2023-04-16T12:07:59;11.00;99.90
15156;DHT22;7678;50.058;8.306;2023-04-16T12:10:28;11.10;99.90
15156;DHT22;7678;50.058;8.306;2023-04-16T12:13:09;11.30;99.90
15156;DHT22;7678;50.058;8.306;2023-04-16T12:15:47;11.40;99.90
15156;DHT22;7678;50.058;8.306;2023-04-16T12:18:15;11.50;99.90
15156;DHT22;7678;50.058;8.306;2023-04-16T12:20:44;11.70;99.90
15156;DHT22;7678;50.058;8.306;2023-04-16T12:23:22;11.70;99.90
15156;DHT22;7678;50.058;8.306;2023-04-16T12:25:50;11.80;99.90
15156;DHT22;7678;50.058;8.306;2023-04-16T12:28:29;11.80;99.90
15156;DHT22;7678;50.058;8.306;2023-04-16T12:30:59;11.60;99.90
15156;DHT22;7678;50.058;8.306;2023-04-16T12:33:27;11.70;99.90
15156;DHT22;7678;50.058;8.306;2023-04-16T12:35:56;11.70;99.90
15156;DHT22;7678;50.058;8.306;2023-04-16T12:38:24;11.90;99.90
15156;DHT22;7678;50.058;8.306;2023-04-16T12:40:53;12.00;99.90
15156;DHT22;7678;50.058;8.306;2023-04-16T12:43:23;12.00;99.90
15156;DHT22;7678;50.058;8.306;2023-04-16T12:45:51;12.10;99.90
15156;DHT22;7678;50.058;8.306;2023-04-16T12:48:20;12.00;99.90
15156;DHT22;7678;50.058;8.306;2023-04-16T12:50:48;12.10;99.90
15156;DHT22;7678;50.058;8.306;2023-04-16T12:53:16;12.30;99.90
15156;DHT22;7678;50.058;8.306;2023-04-16T12:55:44;12.20;99.90
15156;DHT22;7678;50.058;8.306;2023-04-16T12:58:12;12.00;99.90
15156;DHT22;7678;50.058;8.306;2023-04-16T13:00:40;11.90;99.90
15156;DHT22;7678;50.058;8.306;2023-04-16T13:03:08;12.00;99.90
15156;DHT22;7678;50.058;8.306;2023-04-16T13:05:38;12.00;99.90
15156;DHT22;7678;50.058;8.306;2023-04-16T13:08:07;12.00;99.90
15156;DHT22;7678;50.058;8.306;2023-04-16T13:10:35;12.00;99.90
15156;DHT22;7678;50.058;8.306;2023-04-16T13:13:03;12.10;99.90
15156;DHT22;7678;50.058;8.306;2023-04-16T13:15:31;12.10;99.90
15156;DHT22;7678;50.058;8.306;2023-04-16T13:17:59;12.20;99.90
15156;DHT22;7678;50.058;8.306;2023-04-16T13:20:27;12.20;99.90
15156;DHT22;7678;50.058;8.306;2023-04-16T13:22:56;12.30;99.90
15156;DHT22;7678;50.058;8.306;2023-04-16T13:25:24;12.30;99.90
15156;DHT22;7678;50.058;8.306;2023-04-16T13:27:52;12.40;99.90
15156;DHT22;7678;50.058;8.306;2023-04-16T13:30:20;12.60;99.90
15156;DHT22;7678;50.058;8.306;2023-04-16T13:32:48;12.90;99.90
15156;DHT22;7678;50.058;8.306;2023-04-16T13:35:16;13.00;99.90
15156;DHT22;7678;50.058;8.306;2023-04-16T13:37:44;12.80;99.90
15156;DHT22;7678;50.058;8.306;2023-04-16T13:40:14;13.10;99.90
15156;DHT22;7678;50.058;8.306;2023-04-16T13:42:41;13.00;99.90
15156;DHT22;7678;50.058;8.306;2023-04-16T13:45:10;12.90;99.90
15156;DHT22;7678;50.058;8.306;2023-04-16T13:47:39;12.80;99.90
15156;DHT22;7678;50.058;8.306;2023-04-16T13:50:08;12.80;99.90
15156;DHT22;7678;50.058;8.306;2023-04-16T13:52:37;12.70;99.90
15156;DHT22;7678;50.058;8.306;2023-04-16T13:55:05;12.60;99.90
15156;DHT22;7678;50.058;8.306;2023-04-16T13:57:36;12.70;99.90
15156;DHT22;7678;50.058;8.306;2023-04-16T14:00:06;12.80;99.90
15156;DHT22;7678;50.058;8.306;2023-04-16T14:02:39;12.80;99.90
15156;DHT22;7678;50.058;8.306;2023-04-16T14:05:08;12.80;99.90
15156;DHT22;7678;50.058;8.306;2023-04-16T14:07:36;12.70;99.90
15156;DHT22;7678;50.058;8.306;2023-04-16T14:10:05;12.90;99.90
15156;DHT22;7678;50.058;8.306;2023-04-16T14:12:33;13.00;99.90
15156;DHT22;7678;50.058;8.306;2023-04-16T14:15:04;13.00;99.90
15156;DHT22;7678;50.058;8.306;2023-04-16T14:17:32;13.00;99.90
15156;DHT22;7678;50.058;8.306;2023-04-16T14:20:00;12.90;99.90
15156;DHT22;7678;50.058;8.306;2023-04-16T14:22:28;12.90;99.90
15156;DHT22;7678;50.058;8.306;2023-04-16T14:24:56;13.00;99.90
15156;DHT22;7678;50.058;8.306;2023-04-16T14:27:24;13.00;99.90
15156;DHT22;7678;50.058;8.306;2023-04-16T14:29:52;12.90;99.90
15156;DHT22;7678;50.058;8.306;2023-04-16T14:32:21;13.00;99.90
15156;DHT22;7678;50.058;8.306;2023-04-16T14:34:49;13.00;99.90
15156;DHT22;7678;50.058;8.306;2023-04-16T14:37:17;13.00;99.90
15156;DHT22;7678;50.058;8.306;2023-04-16T14:39:45;13.10;99.90
15156;DHT22;7678;50.058;8.306;2023-04-16T14:42:13;13.20;99.90
15156;DHT22;7678;50.058;8.306;2023-04-16T14:44:41;13.20;99.90
15156;DHT22;7678;50.058;8.306;2023-04-16T14:47:09;13.20;99.90
15156;DHT22;7678;50.058;8.306;2023-04-16T14:49:38;13.20;99.90
15156;DHT22;7678;50.058;8.306;2023-04-16T14:52:07;13.30;99.90
15156;DHT22;7678;50.058;8.306;2023-04-16T14:54:35;13.30;99.90
15156;DHT22;7678;50.058;8.306;2023-04-16T14:57:03;13.20;99.90
15156;DHT22;7678;50.058;8.306;2023-04-16T14:59:31;13.40;99.90
15156;DHT22;7678;50.058;8.306;2023-04-16T15:01:59;13.40;99.90
15156;DHT22;7678;50.058;8.306;2023-04-16T15:04:28;13.40;99.90
15156;DHT22;7678;50.058;8.306;2023-04-16T15:06:58;13.20;99.90
15156;DHT22;7678;50.058;8.306;2023-04-16T15:09:26;13.30;99.60
15156;DHT22;7678;50.058;8.306;2023-04-16T15:11:54;13.40;99.90
15156;DHT22;7678;50.058;8.306;2023-04-16T15:14:23;13.50;99.90
15156;DHT22;7678;50.058;8.306;2023-04-16T15:16:52;13.50;99.90
15156;DHT22;7678;50.058;8.306;2023-04-16T15:19:20;13.40;99.90
15156;DHT22;7678;50.058;8.306;2023-04-16T15:21:48;13.40;99.90
15156;DHT22;7678;50.058;8.306;2023-04-16T15:24:17;13.40;99.90
15156;DHT22;7678;50.058;8.306;2023-04-16T15:26:45;13.40;99.90
15156;DHT22;7678;50.058;8.306;2023-04-16T15:29:13;13.40;99.90
15156;DHT22;7678;50.058;8.306;2023-04-16T15:31:41;13.30;99.90
15156;DHT22;7678;50.058;8.306;2023-04-16T15:34:09;13.50;99.90
15156;DHT22;7678;50.058;8.306;2023-04-16T15:36:38;13.50;99.90
15156;DHT22;7678;50.058;8.306;2023-04-16T15:39:06;13.70;99.90
15156;DHT22;7678;50.058;8.306;2023-04-16T15:41:36;13.70;99.90
15156;DHT22;7678;50.058;8.306;2023-04-16T15:44:22;13.70;99.90
15156;DHT22;7678;50.058;8.306;2023-04-16T15:46:51;13.50;99.90
15156;DHT22;7678;50.058;8.306;2023-04-16T15:49:19;13.50;99.90
15156;DHT22;7678;50.058;8.306;2023-04-16T15:51:47;13.50;99.90
15156;DHT22;7678;50.058;8.306;2023-04-16T15:54:15;13.60;99.10
15156;DHT22;7678;50.058;8.306;2023-04-16T15:56:45;13.80;99.90
15156;DHT22;7678;50.058;8.306;2023-04-16T15:59:13;13.70;99.90
15156;DHT22;7678;50.058;8.306;2023-04-16T16:01:41;13.40;99.90
15156;DHT22;7678;50.058;8.306;2023-04-16T16:04:09;13.30;99.90
15156;DHT22;7678;50.058;8.306;2023-04-16T16:06:37;13.30;99.90
15156;DHT22;7678;50.058;8.306;2023-04-16T16:09:05;13.20;99.90